IBE385 LXGB-LEPA
Flight info
| Callsign | IBE385 |
|---|---|
| Flight time | N/A |
| Altitude | 36000 |
| Route | PIMOS M445 RIXUR N851 RUXET |
| Aircraft | A320/M-SDE3FGHIRWY/LB1 |
Departure
| Time | N/A |
|---|---|
| Airport | Gibraltar Airport (LXGB) |
Arrival
| Time | 2026-05-04 19:07 |
|---|---|
| Airport | Palma de Mallorca Airport (LEPA) |
| Time | Latitude | Longitude | Altitude | Speed | Heading |
|---|---|---|---|---|---|
| 2026-05-04 18:43 | 38.87193 | 2.03992 | 33454 ft | 540 kts | 50° |
| 2026-05-04 18:43 | 38.89480 | 2.07733 | 33276 ft | 539 kts | 50° |
| 2026-05-04 18:44 | 38.91787 | 2.11521 | 33067 ft | 541 kts | 51° |
| 2026-05-04 18:44 | 38.93382 | 2.14153 | 32951 ft | 548 kts | 51° |
| 2026-05-04 18:44 | 38.96494 | 2.19310 | 32722 ft | 562 kts | 51° |
| 2026-05-04 18:44 | 38.98795 | 2.23143 | 33008 ft | 562 kts | 51° |
| 2026-05-04 18:45 | 39.01181 | 2.27122 | 33285 ft | 562 kts | 51° |
| 2026-05-04 18:45 | 39.03569 | 2.31104 | 33633 ft | 560 kts | 51° |
| 2026-05-04 18:45 | 39.05928 | 2.35041 | 34281 ft | 551 kts | 51° |
| 2026-05-04 18:45 | 39.08252 | 2.38924 | 34859 ft | 543 kts | 51° |
| 2026-05-04 18:46 | 39.10538 | 2.42747 | 35494 ft | 535 kts | 51° |
| 2026-05-04 18:46 | 39.12755 | 2.46459 | 36099 ft | 526 kts | 51° |
| 2026-05-04 18:46 | 39.14950 | 2.50173 | 36475 ft | 515 kts | 51° |
| 2026-05-04 18:46 | 39.17085 | 2.53821 | 35530 ft | 508 kts | 51° |
| 2026-05-04 18:47 | 39.19236 | 2.57471 | 34522 ft | 509 kts | 51° |
| 2026-05-04 18:47 | 39.21377 | 2.61075 | 33677 ft | 504 kts | 51° |
| 2026-05-04 18:47 | 39.23620 | 2.64487 | 32960 ft | 491 kts | 40° |
| 2026-05-04 18:47 | 39.26271 | 2.67128 | 32248 ft | 474 kts | 24° |
| 2026-05-04 18:48 | 39.29198 | 2.68873 | 31496 ft | 456 kts | 14° |
| 2026-05-04 18:48 | 39.32151 | 2.70318 | 30777 ft | 450 kts | 14° |
| 2026-05-04 18:48 | 39.35067 | 2.71736 | 30011 ft | 445 kts | 14° |
| 2026-05-04 18:48 | 39.37949 | 2.73134 | 29146 ft | 440 kts | 14° |
| 2026-05-04 18:49 | 39.40797 | 2.74519 | 28447 ft | 432 kts | 14° |
| 2026-05-04 18:49 | 39.43575 | 2.75884 | 27579 ft | 429 kts | 16° |
| 2026-05-04 18:49 | 39.46139 | 2.77813 | 26564 ft | 440 kts | 39° |
| 2026-05-04 18:49 | 39.48099 | 2.80869 | 25579 ft | 444 kts | 61° |
| 2026-05-04 18:50 | 39.49248 | 2.84545 | 24622 ft | 439 kts | 80° |
| 2026-05-04 18:50 | 39.49584 | 2.88420 | 23703 ft | 430 kts | 97° |
| 2026-05-04 18:50 | 39.49120 | 2.92168 | 22639 ft | 416 kts | 115° |
| 2026-05-04 18:50 | 39.47921 | 2.95492 | 21596 ft | 401 kts | 131° |
| 2026-05-04 18:51 | 39.46143 | 2.98168 | 20581 ft | 386 kts | 147° |
| 2026-05-04 18:51 | 39.43974 | 3.00085 | 19598 ft | 371 kts | 161° |
| 2026-05-04 18:51 | 39.41598 | 3.01218 | 18675 ft | 359 kts | 174° |
| 2026-05-04 18:51 | 39.39226 | 3.01561 | 18219 ft | 335 kts | 187° |
| 2026-05-04 18:52 | 39.37011 | 3.01268 | 18032 ft | 306 kts | 198° |
| 2026-05-04 18:52 | 39.35053 | 3.00533 | 17823 ft | 283 kts | 205° |
| 2026-05-04 18:52 | 39.33293 | 2.99582 | 17555 ft | 265 kts | 214° |
| 2026-05-04 18:52 | 39.32008 | 2.98065 | 17292 ft | 243 kts | 241° |
| 2026-05-04 18:53 | 39.31535 | 2.96045 | 16916 ft | 237 kts | 268° |
| 2026-05-04 18:53 | 39.31963 | 2.93974 | 16437 ft | 255 kts | 296° |
| 2026-05-04 18:53 | 39.33311 | 2.92189 | 15981 ft | 302 kts | 321° |
| 2026-05-04 18:53 | 39.35351 | 2.91173 | 15500 ft | 328 kts | 345° |
| 2026-05-04 18:54 | 39.37649 | 2.91266 | 15002 ft | 345 kts | 9° |
| 2026-05-04 18:54 | 39.39950 | 2.92264 | 14506 ft | 352 kts | 17° |
| 2026-05-04 18:54 | 39.42236 | 2.93412 | 14168 ft | 350 kts | 17° |
| 2026-05-04 18:54 | 39.44496 | 2.94560 | 13775 ft | 350 kts | 17° |
| 2026-05-04 18:55 | 39.46768 | 2.95712 | 13248 ft | 352 kts | 17° |
| 2026-05-04 18:55 | 39.51349 | 2.98029 | 12224 ft | 355 kts | 17° |
| 2026-05-04 18:55 | 39.53649 | 2.99185 | 11722 ft | 355 kts | 17° |
| 2026-05-04 18:56 | 39.55921 | 3.00325 | 11239 ft | 355 kts | 18° |
| 2026-05-04 18:56 | 39.58088 | 3.01872 | 10747 ft | 360 kts | 38° |
| 2026-05-04 18:56 | 39.59708 | 3.04331 | 10262 ft | 361 kts | 60° |
| 2026-05-04 18:56 | 39.60785 | 3.07272 | 9776 ft | 360 kts | 67° |
| 2026-05-04 18:57 | 39.61773 | 3.10247 | 9249 ft | 359 kts | 67° |
| 2026-05-04 18:57 | 39.62758 | 3.13219 | 8735 ft | 358 kts | 68° |
| 2026-05-04 18:57 | 39.63729 | 3.16124 | 8395 ft | 340 kts | 67° |
| 2026-05-04 18:57 | 39.64640 | 3.18835 | 8135 ft | 319 kts | 67° |
| 2026-05-04 18:58 | 39.65696 | 3.21266 | 7655 ft | 310 kts | 47° |
| 2026-05-04 18:58 | 39.67345 | 3.22845 | 7511 ft | 283 kts | 18° |
| 2026-05-04 18:58 | 39.69159 | 3.23263 | 7328 ft | 253 kts | 347° |
| 2026-05-04 18:58 | 39.70735 | 3.22551 | 7056 ft | 232 kts | 315° |
| 2026-05-04 18:59 | 39.71686 | 3.21002 | 6742 ft | 213 kts | 283° |
| 2026-05-04 18:59 | 39.72017 | 3.19156 | 6405 ft | 208 kts | 268° |
| 2026-05-04 18:59 | 39.71812 | 3.17351 | 6087 ft | 200 kts | 246° |
| 2026-05-04 18:59 | 39.71280 | 3.15681 | 5765 ft | 199 kts | 245° |
| 2026-05-04 19:00 | 39.70740 | 3.14020 | 5357 ft | 203 kts | 245° |
| 2026-05-04 19:00 | 39.70187 | 3.12323 | 5064 ft | 201 kts | 245° |
| 2026-05-04 19:00 | 39.69651 | 3.10671 | 4815 ft | 197 kts | 245° |
| 2026-05-04 19:00 | 39.69136 | 3.09081 | 4670 ft | 189 kts | 245° |
| 2026-05-04 19:01 | 39.68634 | 3.07542 | 4547 ft | 182 kts | 245° |
| 2026-05-04 19:01 | 39.68146 | 3.06052 | 4386 ft | 177 kts | 245° |
| 2026-05-04 19:01 | 39.67664 | 3.04588 | 4142 ft | 177 kts | 245° |
| 2026-05-04 19:01 | 39.67175 | 3.03101 | 3827 ft | 180 kts | 246° |
| 2026-05-04 19:02 | 39.66684 | 3.01602 | 3566 ft | 181 kts | 246° |
| 2026-05-04 19:02 | 39.66194 | 3.00105 | 3359 ft | 180 kts | 245° |
| 2026-05-04 19:02 | 39.65704 | 2.98611 | 3091 ft | 180 kts | 246° |
| 2026-05-04 19:02 | 39.65230 | 2.97131 | 2991 ft | 180 kts | 245° |
| 2026-05-04 19:03 | 39.64669 | 2.95683 | 2995 ft | 179 kts | 241° |
| 2026-05-04 19:03 | 39.64052 | 2.94283 | 2996 ft | 179 kts | 239° |
| 2026-05-04 19:03 | 39.63416 | 2.92903 | 2919 ft | 175 kts | 238° |
| 2026-05-04 19:03 | 39.62795 | 2.91573 | 2740 ft | 170 kts | 239° |
| 2026-05-04 19:04 | 39.62186 | 2.90275 | 2510 ft | 168 kts | 238° |
| 2026-05-04 19:04 | 39.61585 | 2.88998 | 2312 ft | 161 kts | 237° |
| 2026-05-04 19:04 | 39.61016 | 2.87785 | 2085 ft | 154 kts | 237° |
| 2026-05-04 19:04 | 39.60467 | 2.86619 | 1888 ft | 149 kts | 238° |
| 2026-05-04 19:05 | 39.59947 | 2.85515 | 1704 ft | 141 kts | 237° |
| 2026-05-04 19:05 | 39.59458 | 2.84476 | 1511 ft | 132 kts | 238° |
| 2026-05-04 19:05 | 39.58984 | 2.83469 | 1344 ft | 129 kts | 236° |
| 2026-05-04 19:05 | 39.58518 | 2.82482 | 1160 ft | 131 kts | 236° |
| 2026-05-04 19:06 | 39.58058 | 2.81505 | 997 ft | 126 kts | 237° |
| 2026-05-04 19:06 | 39.57576 | 2.80482 | 836 ft | 134 kts | 237° |
| 2026-05-04 19:06 | 39.57082 | 2.79419 | 598 ft | 140 kts | 238° |
| 2026-05-04 19:06 | 39.56569 | 2.78359 | 448 ft | 141 kts | 237° |
| 2026-05-04 19:07 | 39.56071 | 2.77288 | 311 ft | 135 kts | 236° |
| 2026-05-04 19:07 | 39.55587 | 2.76269 | 92 ft | 132 kts | 237° |
| 2026-05-04 19:07 | 39.55138 | 2.75315 | 29 ft | 105 kts | 237° |
| 2026-05-04 19:07 | 39.54899 | 2.74807 | 28 ft | 49 kts | 242° |
| 2026-05-04 19:08 | 39.54803 | 2.74414 | 31 ft | 42 kts | 266° |
| 2026-05-04 19:08 | 39.54802 | 2.74345 | 32 ft | 0 kts | 270° |
| 2026-05-04 19:09 | 39.54802 | 2.74323 | 32 ft | 4 kts | 270° |
| 2026-05-04 19:09 | 39.54802 | 2.74283 | 32 ft | 7 kts | 270° |
| 2026-05-04 19:09 | 39.54803 | 2.74185 | 32 ft | 12 kts | 285° |
| 2026-05-04 19:10 | 39.54858 | 2.74102 | 33 ft | 12 kts | 327° |
| 2026-05-04 19:10 | 39.54924 | 2.74049 | 31 ft | 11 kts | 328° |
| 2026-05-04 19:10 | 39.54984 | 2.74001 | 33 ft | 10 kts | 328° |
| 2026-05-04 19:10 | 39.55038 | 2.73958 | 33 ft | 9 kts | 328° |
| 2026-05-04 19:11 | 39.55105 | 2.73904 | 33 ft | 16 kts | 328° |
| 2026-05-04 19:11 | 39.55194 | 2.73834 | 33 ft | 14 kts | 329° |
| 2026-05-04 19:11 | 39.55275 | 2.73773 | 34 ft | 13 kts | 329° |
| 2026-05-04 19:11 | 39.55347 | 2.73718 | 34 ft | 11 kts | 329° |
| 2026-05-04 19:12 | 39.55411 | 2.73666 | 34 ft | 10 kts | 327° |
| 2026-05-04 19:12 | 39.55453 | 2.73465 | 34 ft | 18 kts | 236° |
| 2026-05-04 19:12 | 39.55383 | 2.73322 | 33 ft | 20 kts | 238° |
| 2026-05-04 19:13 | 39.55313 | 2.73170 | 32 ft | 17 kts | 246° |
| 2026-05-04 19:13 | 39.55257 | 2.73057 | 31 ft | 14 kts | 229° |
| 2026-05-04 19:13 | 39.55218 | 2.73032 | 32 ft | 2 kts | 195° |
| 2026-05-04 19:13 | 39.55197 | 2.73024 | 31 ft | 5 kts | 197° |
| 2026-05-04 19:14 | 39.55169 | 2.73015 | 32 ft | 3 kts | 193° |
| 2026-05-04 19:14 | 39.55165 | 2.73013 | 32 ft | 0 kts | 193° |